createdAt,value
2022-11-14T00:00:58.607Z,4.10
2022-11-14T00:03:44.871Z,4.10
2022-11-14T00:06:31.251Z,4.00
2022-11-14T00:09:16.987Z,4.00
2022-11-14T00:12:03.180Z,4.00
2022-11-14T00:14:50.848Z,3.90
2022-11-14T00:17:37.756Z,3.80
2022-11-14T00:20:24.045Z,3.70
2022-11-14T00:23:10.431Z,3.60
2022-11-14T00:25:56.778Z,3.70
2022-11-14T00:28:43.168Z,3.70
2022-11-14T00:31:30.588Z,3.70
2022-11-14T00:34:17.270Z,3.80
2022-11-14T00:37:03.966Z,3.80
2022-11-14T00:39:50.100Z,4.20
2022-11-14T00:42:37.003Z,4.30
2022-11-14T00:45:23.256Z,4.50
2022-11-14T00:48:09.342Z,4.80
2022-11-14T00:50:55.377Z,5.10
2022-11-14T00:53:42.294Z,5.30
2022-11-14T00:56:29.359Z,5.30
2022-11-14T00:59:15.996Z,5.50
2022-11-14T01:02:05.017Z,5.60
2022-11-14T01:04:53.002Z,5.60
2022-11-14T01:07:40.833Z,5.60
2022-11-14T01:10:26.875Z,5.50
2022-11-14T01:13:13.774Z,5.50
2022-11-14T01:16:02.318Z,5.40
2022-11-14T01:18:48.820Z,5.40
2022-11-14T01:21:35.350Z,5.40
2022-11-14T01:24:21.632Z,5.30
2022-11-14T01:27:07.804Z,5.20
2022-11-14T01:29:54.245Z,5.10
2022-11-14T01:32:40.744Z,5.20
2022-11-14T01:35:27.066Z,5.10
2022-11-14T01:38:16.052Z,5.10
2022-11-14T01:41:04.148Z,5.00
2022-11-14T01:43:50.698Z,4.90
2022-11-14T01:46:42.662Z,4.90
2022-11-14T01:49:43.211Z,4.60
2022-11-14T01:52:40.399Z,4.40
2022-11-14T01:55:27.524Z,4.20
2022-11-14T01:58:16.669Z,4.00
2022-11-14T02:01:04.602Z,3.90
2022-11-14T02:03:56.247Z,3.70
2022-11-14T02:06:42.892Z,3.50
2022-11-14T02:09:39.179Z,3.40
2022-11-14T02:12:25.627Z,3.20
2022-11-14T02:15:14.400Z,3.10
2022-11-14T02:18:02.514Z,3.00
2022-11-14T02:20:48.508Z,2.90
2022-11-14T02:23:34.571Z,2.80
2022-11-14T02:26:23.516Z,2.80
2022-11-14T02:29:12.095Z,2.70
2022-11-14T02:31:58.253Z,2.70
2022-11-14T02:34:44.457Z,2.60
2022-11-14T02:37:31.041Z,2.70
2022-11-14T02:40:17.992Z,2.70
2022-11-14T02:43:04.902Z,2.60
2022-11-14T02:45:51.616Z,2.60
2022-11-14T02:48:37.768Z,2.50
2022-11-14T02:51:24.284Z,2.40
2022-11-14T02:54:10.355Z,2.30
2022-11-14T02:56:57.214Z,2.40
2022-11-14T02:59:43.891Z,2.40
2022-11-14T03:02:29.680Z,2.50
2022-11-14T03:05:16.013Z,2.50
2022-11-14T03:08:01.771Z,2.60
2022-11-14T03:10:47.914Z,2.50
2022-11-14T03:13:34.881Z,2.50
2022-11-14T03:16:21.461Z,2.50
2022-11-14T03:19:07.557Z,2.50
2022-11-14T03:21:54.083Z,2.50
2022-11-14T03:24:40.663Z,2.40
2022-11-14T03:27:27.031Z,2.30
2022-11-14T03:30:13.852Z,2.30
2022-11-14T03:33:00.337Z,2.20
2022-11-14T03:35:50.666Z,2.20
2022-11-14T03:38:37.107Z,2.20
2022-11-14T03:41:23.443Z,2.20
2022-11-14T03:44:09.882Z,2.30
2022-11-14T03:46:55.787Z,2.20
2022-11-14T03:49:42.032Z,2.20
2022-11-14T03:52:27.796Z,2.20
2022-11-14T03:55:14.698Z,2.10
2022-11-14T03:58:01.668Z,2.20
2022-11-14T04:00:48.049Z,2.10
2022-11-14T04:03:34.585Z,2.10
2022-11-14T04:06:21.517Z,2.10
2022-11-14T04:09:07.755Z,2.10
2022-11-14T04:11:53.564Z,2.10
2022-11-14T04:14:39.790Z,2.00
2022-11-14T04:17:26.026Z,1.90
2022-11-14T04:20:14.830Z,1.90
2022-11-14T04:23:01.196Z,1.90
2022-11-14T04:25:48.163Z,1.90
2022-11-14T04:28:34.101Z,1.80
2022-11-14T04:31:20.763Z,1.80
2022-11-14T04:34:06.755Z,1.90
2022-11-14T04:36:53.302Z,2.20
2022-11-14T04:39:39.814Z,2.10
2022-11-14T04:42:26.540Z,2.20
2022-11-14T04:45:12.624Z,2.10
2022-11-14T04:47:59.037Z,2.00
2022-11-14T04:50:46.821Z,1.90
2022-11-14T04:53:32.989Z,1.90
2022-11-14T04:56:19.438Z,1.80
2022-11-14T04:59:05.171Z,1.90
2022-11-14T05:01:51.520Z,1.90
2022-11-14T05:04:37.767Z,1.80
2022-11-14T05:07:24.240Z,1.80
2022-11-14T05:10:11.344Z,1.80
2022-11-14T05:12:57.327Z,1.90
2022-11-14T05:15:43.434Z,1.90
2022-11-14T05:18:30.807Z,2.30
2022-11-14T05:21:17.428Z,2.50
2022-11-14T05:24:04.404Z,2.80
2022-11-14T05:26:50.885Z,2.90
2022-11-14T05:29:37.184Z,3.00
2022-11-14T05:32:23.310Z,3.00
2022-11-14T05:35:09.659Z,2.90
2022-11-14T05:37:59.080Z,2.80
2022-11-14T05:40:45.909Z,2.70
2022-11-14T05:43:31.709Z,2.50
2022-11-14T05:46:17.933Z,2.50
2022-11-14T05:49:04.387Z,2.50
2022-11-14T05:51:50.356Z,2.50
2022-11-14T05:54:36.059Z,2.50
2022-11-14T05:57:22.367Z,2.40
2022-11-14T06:00:11.673Z,2.40
2022-11-14T06:03:00.125Z,2.30
2022-11-14T06:05:46.781Z,2.30
2022-11-14T06:08:34.384Z,2.20
2022-11-14T06:11:21.837Z,2.20
2022-11-14T06:14:10.948Z,2.10
2022-11-14T06:16:57.461Z,2.00
2022-11-14T06:19:44.351Z,1.90
2022-11-14T06:22:30.619Z,1.80
2022-11-14T06:25:23.773Z,1.70
2022-11-14T06:28:11.357Z,1.70
2022-11-14T06:31:05.189Z,1.80
2022-11-14T06:33:52.126Z,1.70
2022-11-14T06:36:38.163Z,1.80
2022-11-14T06:39:24.076Z,1.90
2022-11-14T06:42:11.144Z,2.10
2022-11-14T06:44:57.126Z,2.10
2022-11-14T06:47:42.904Z,2.10
2022-11-14T06:50:28.890Z,2.10
2022-11-14T06:53:15.328Z,2.10
2022-11-14T06:56:13.606Z,2.20
2022-11-14T06:59:00.176Z,2.20
2022-11-14T07:01:46.055Z,2.20
2022-11-14T07:04:32.105Z,2.20
2022-11-14T07:07:18.586Z,2.40
2022-11-14T07:10:05.371Z,2.50
2022-11-14T07:12:51.437Z,2.50
2022-11-14T07:15:38.098Z,2.60
2022-11-14T07:18:24.408Z,2.60
2022-11-14T07:21:13.401Z,2.70
2022-11-14T07:23:59.592Z,2.70
2022-11-14T07:26:46.943Z,2.70
2022-11-14T07:29:32.628Z,2.60
2022-11-14T07:32:18.696Z,2.60
2022-11-14T07:35:05.589Z,2.50
2022-11-14T07:37:52.404Z,2.50
2022-11-14T07:40:39.373Z,2.50
2022-11-14T07:43:27.051Z,2.50
2022-11-14T07:46:18.960Z,2.50
2022-11-14T07:49:05.129Z,2.60
2022-11-14T07:51:52.644Z,2.70
2022-11-14T07:54:39.315Z,2.80
2022-11-14T07:57:25.623Z,2.80
2022-11-14T08:00:13.720Z,3.00
2022-11-14T08:03:00.084Z,3.10
2022-11-14T08:05:46.118Z,3.30
2022-11-14T08:08:39.571Z,3.60
2022-11-14T08:11:44.630Z,3.70
2022-11-14T08:14:30.966Z,3.90
2022-11-14T08:17:16.763Z,4.30
2022-11-14T08:20:05.997Z,4.80
2022-11-14T08:23:01.736Z,5.40
2022-11-14T08:25:47.937Z,5.90
2022-11-14T08:28:34.607Z,6.30
2022-11-14T08:31:22.258Z,6.60
2022-11-14T08:34:08.713Z,7.00
2022-11-14T08:36:56.755Z,7.40
2022-11-14T08:39:43.849Z,7.80
2022-11-14T08:42:29.970Z,8.10
2022-11-14T08:45:16.468Z,8.60
2022-11-14T08:48:02.526Z,8.80
2022-11-14T08:50:48.557Z,9.10
2022-11-14T08:53:35.502Z,9.30
2022-11-14T08:56:21.768Z,9.60
2022-11-14T08:59:08.174Z,9.50
2022-11-14T09:01:54.686Z,9.30
2022-11-14T09:04:41.169Z,9.40
2022-11-14T09:07:28.738Z,9.30
2022-11-14T09:10:16.113Z,8.90
2022-11-14T09:13:02.898Z,8.80
2022-11-14T09:15:49.815Z,8.70
2022-11-14T09:18:37.612Z,8.50
2022-11-14T09:21:23.905Z,8.50
2022-11-14T09:24:10.751Z,8.30
2022-11-14T09:26:57.417Z,8.30
2022-11-14T09:29:44.187Z,8.30
2022-11-14T09:32:30.482Z,8.40
2022-11-14T09:35:17.499Z,8.30
2022-11-14T09:38:13.063Z,8.30
2022-11-14T09:41:39.221Z,8.30
2022-11-14T09:44:58.680Z,8.30
2022-11-14T09:48:00.453Z,8.50
2022-11-14T09:51:16.910Z,8.60
2022-11-14T09:54:24.433Z,8.80
2022-11-14T09:57:20.368Z,8.70
2022-11-14T10:00:33.507Z,8.90
2022-11-14T10:03:34.197Z,9.10
2022-11-14T10:06:41.268Z,9.30
2022-11-14T10:10:13.451Z,9.10
2022-11-14T10:13:43.944Z,9.10
2022-11-14T10:17:29.653Z,9.10
2022-11-14T10:21:10.480Z,9.20
2022-11-14T10:24:52.491Z,9.40
2022-11-14T10:29:06.425Z,9.60
2022-11-14T10:32:47.708Z,9.40
2022-11-14T10:35:57.836Z,9.30
2022-11-14T10:39:19.949Z,9.30
2022-11-14T10:42:41.609Z,9.50
2022-11-14T10:45:44.847Z,9.70
2022-11-14T10:48:47.546Z,9.50
2022-11-14T10:51:50.546Z,9.50
2022-11-14T10:55:00.251Z,9.40
2022-11-14T10:57:47.225Z,9.50
2022-11-14T11:00:33.495Z,9.40
2022-11-14T11:03:20.092Z,9.20
2022-11-14T11:06:06.696Z,9.40
2022-11-14T11:09:12.010Z,9.30
2022-11-14T11:12:04.026Z,9.30
2022-11-14T11:15:20.390Z,9.10
2022-11-14T11:18:29.826Z,9.10
2022-11-14T11:21:24.176Z,9.00
2022-11-14T11:24:31.270Z,9.00
2022-11-14T11:27:28.552Z,9.00
2022-11-14T11:30:23.860Z,9.20
2022-11-14T11:33:32.339Z,9.40
2022-11-14T11:36:27.396Z,9.60
2022-11-14T11:39:33.448Z,9.70
2022-11-14T11:43:31.713Z,9.80
2022-11-14T11:45:54.957Z,10.00
2022-11-14T11:48:41.824Z,10.20
2022-11-14T11:51:31.350Z,10.20
2022-11-14T11:54:33.383Z,10.30
2022-11-14T11:57:33.844Z,10.50
2022-11-14T12:00:23.326Z,10.70
2022-11-14T12:03:20.318Z,10.30
2022-11-14T12:06:28.607Z,10.10
2022-11-14T12:14:07.288Z,10.10
2022-11-14T12:17:58.992Z,10.20
2022-11-14T12:21:57.320Z,10.20
2022-11-14T12:25:44.616Z,10.20
2022-11-14T12:29:25.381Z,10.40
2022-11-14T12:32:33.832Z,10.20
2022-11-14T12:35:37.098Z,10.30
2022-11-14T12:38:26.561Z,10.40
2022-11-14T12:41:26.513Z,10.40
2022-11-14T12:44:36.523Z,10.60
2022-11-14T12:47:29.762Z,10.70
2022-11-14T12:50:43.382Z,10.80
2022-11-14T12:53:38.637Z,10.60
2022-11-14T12:56:31.592Z,10.80
2022-11-14T12:59:49.829Z,10.80
2022-11-14T13:03:36.498Z,10.80
2022-11-14T13:07:13.261Z,10.80
2022-11-14T13:10:41.083Z,10.80
2022-11-14T13:13:47.051Z,10.60
2022-11-14T13:16:51.871Z,10.70
2022-11-14T13:20:05.741Z,10.70
2022-11-14T13:22:52.874Z,10.70
2022-11-14T13:25:38.939Z,10.50
2022-11-14T13:28:51.659Z,10.40
2022-11-14T13:31:40.781Z,10.60
2022-11-14T13:35:03.372Z,10.60
2022-11-14T13:38:20.025Z,10.60
2022-11-14T13:41:49.653Z,10.40
2022-11-14T13:45:18.321Z,10.60
2022-11-14T13:49:13.369Z,10.70
2022-11-14T13:51:59.770Z,10.50
2022-11-14T13:54:51.284Z,10.40
2022-11-14T13:58:04.766Z,10.40
2022-11-14T14:01:31.680Z,10.30
2022-11-14T14:05:33.654Z,10.40
2022-11-14T14:09:16.243Z,10.40
2022-11-14T14:12:39.157Z,10.70
2022-11-14T14:16:07.594Z,10.50
2022-11-14T14:19:25.967Z,10.40
2022-11-14T14:22:59.155Z,10.30
2022-11-14T14:26:15.476Z,10.30
2022-11-14T14:29:36.808Z,10.20
2022-11-14T14:32:25.511Z,10.20
2022-11-14T14:35:28.858Z,10.10
2022-11-14T14:38:28.145Z,10.00
2022-11-14T14:41:20.437Z,10.10
2022-11-14T14:44:23.566Z,10.10
2022-11-14T14:47:42.473Z,10.10
2022-11-14T14:50:41.263Z,10.00
2022-11-14T14:53:36.631Z,10.30
2022-11-14T14:56:26.811Z,10.30
2022-11-14T14:59:23.963Z,10.30
2022-11-14T15:02:28.909Z,10.30
2022-11-14T15:05:36.185Z,10.30
2022-11-14T15:08:22.366Z,10.30
2022-11-14T15:11:09.204Z,10.30
2022-11-14T15:14:06.565Z,10.10
2022-11-14T15:16:56.395Z,10.10
2022-11-14T15:19:47.275Z,9.90
2022-11-14T15:22:33.775Z,10.00
2022-11-14T15:25:21.150Z,9.90
2022-11-14T15:28:22.881Z,9.90
2022-11-14T15:31:22.623Z,9.80
2022-11-14T15:34:33.864Z,9.80
2022-11-14T15:37:23.698Z,9.90
2022-11-14T15:40:22.923Z,9.90
2022-11-14T15:43:55.322Z,9.90
2022-11-14T15:46:47.763Z,10.00
2022-11-14T15:49:34.200Z,10.00
2022-11-14T15:52:35.812Z,9.90
2022-11-14T15:55:24.958Z,9.90
2022-11-14T15:58:27.698Z,9.90
2022-11-14T16:01:27.294Z,9.90
2022-11-14T16:04:34.046Z,9.90
2022-11-14T16:07:20.954Z,9.70
2022-11-14T16:10:24.245Z,9.80
2022-11-14T16:13:11.302Z,9.80
2022-11-14T16:15:57.230Z,9.80
2022-11-14T16:18:43.557Z,9.70
2022-11-14T16:21:30.206Z,9.60
2022-11-14T16:24:24.106Z,9.60
2022-11-14T16:27:10.657Z,9.60
2022-11-14T16:29:57.141Z,9.80
2022-11-14T16:32:48.518Z,9.80
2022-11-14T16:35:35.012Z,9.70
2022-11-14T16:38:21.398Z,9.60
2022-11-14T16:41:09.977Z,9.50
2022-11-14T16:43:57.747Z,9.40
2022-11-14T16:46:46.543Z,9.40
2022-11-14T16:49:32.767Z,9.50
2022-11-14T16:52:19.973Z,9.70
2022-11-14T16:55:10.624Z,9.60
2022-11-14T16:57:57.205Z,9.50
2022-11-14T17:00:46.420Z,9.40
2022-11-14T17:03:33.556Z,9.40
2022-11-14T17:06:20.215Z,9.60
2022-11-14T17:09:06.537Z,9.60
2022-11-14T17:11:52.801Z,9.50
2022-11-14T17:14:39.150Z,9.40
2022-11-14T17:17:26.012Z,9.30
2022-11-14T17:20:12.407Z,9.30
2022-11-14T17:22:59.055Z,9.30
2022-11-14T17:25:45.589Z,9.20
2022-11-14T17:28:31.918Z,9.30
2022-11-14T17:31:19.357Z,9.20
2022-11-14T17:34:08.899Z,9.20
2022-11-14T17:36:55.003Z,9.30
2022-11-14T17:39:40.778Z,9.40
2022-11-14T17:42:27.516Z,9.40
2022-11-14T17:45:14.051Z,9.50
2022-11-14T17:48:00.471Z,9.50
2022-11-14T17:50:46.336Z,9.60
2022-11-14T17:53:37.078Z,9.40
2022-11-14T17:56:26.904Z,9.30
2022-11-14T17:59:13.143Z,9.30
2022-11-14T18:02:02.306Z,9.20
2022-11-14T18:04:48.894Z,9.20
2022-11-14T18:07:35.928Z,9.20
2022-11-14T18:10:22.219Z,9.20
2022-11-14T18:13:10.049Z,9.10
2022-11-14T18:16:05.631Z,9.20
2022-11-14T18:18:52.335Z,9.20
2022-11-14T18:21:40.126Z,9.20
2022-11-14T18:24:25.994Z,9.10
2022-11-14T18:27:15.241Z,9.20
2022-11-14T18:30:13.889Z,9.20
2022-11-14T18:33:07.730Z,9.10
2022-11-14T18:36:00.390Z,9.10
2022-11-14T18:38:47.196Z,9.10
2022-11-14T18:41:33.567Z,9.20
2022-11-14T18:44:21.189Z,9.30
2022-11-14T18:47:07.609Z,9.30
2022-11-14T18:49:53.861Z,9.30
2022-11-14T18:52:40.162Z,9.30
2022-11-14T18:55:26.642Z,9.40
2022-11-14T18:58:15.075Z,9.50
2022-11-14T19:01:28.464Z,9.40
2022-11-14T19:04:17.426Z,9.30
2022-11-14T19:07:03.960Z,9.30
2022-11-14T19:09:50.105Z,9.30
2022-11-14T19:12:36.190Z,9.20
2022-11-14T19:15:22.026Z,9.30
2022-11-14T19:18:09.440Z,9.20
2022-11-14T19:21:02.844Z,9.30
2022-11-14T19:23:50.540Z,9.20
2022-11-14T19:26:37.023Z,9.20
2022-11-14T19:29:23.962Z,9.10
2022-11-14T19:32:10.133Z,9.10
2022-11-14T19:34:56.015Z,9.10
2022-11-14T19:37:41.928Z,9.10
2022-11-14T19:40:30.041Z,9.10
2022-11-14T19:43:18.895Z,9.10
2022-11-14T19:46:07.293Z,9.00
2022-11-14T19:49:00.632Z,8.90
2022-11-14T19:51:47.178Z,8.90
2022-11-14T19:54:33.621Z,8.80
2022-11-14T19:57:20.058Z,8.80
2022-11-14T20:00:07.700Z,8.70
2022-11-14T20:02:54.150Z,8.50
2022-11-14T20:05:41.000Z,8.30
2022-11-14T20:08:27.580Z,8.30
2022-11-14T20:11:13.570Z,8.30
2022-11-14T20:14:02.355Z,8.20
2022-11-14T20:16:48.541Z,7.90
2022-11-14T20:19:34.785Z,7.80
2022-11-14T20:22:21.343Z,7.80
2022-11-14T20:25:08.306Z,7.80
2022-11-14T20:27:58.700Z,7.80
2022-11-14T20:30:45.912Z,7.80
2022-11-14T20:33:38.027Z,7.70
2022-11-14T20:36:31.900Z,7.70
2022-11-14T20:39:25.281Z,7.50
2022-11-14T20:42:11.856Z,7.50
2022-11-14T20:44:58.454Z,7.40
2022-11-14T20:47:44.315Z,7.20
2022-11-14T20:50:31.003Z,7.30
2022-11-14T20:53:18.394Z,7.30
2022-11-14T20:56:05.043Z,7.60
2022-11-14T20:58:52.226Z,7.80
2022-11-14T21:01:43.491Z,7.90
2022-11-14T21:04:30.395Z,8.00
2022-11-14T21:07:17.122Z,8.00
2022-11-14T21:10:21.672Z,8.10
2022-11-14T21:13:29.651Z,8.20
2022-11-14T21:16:20.213Z,8.40
2022-11-14T21:19:07.613Z,8.40
2022-11-14T21:21:53.641Z,8.40
2022-11-14T21:24:40.039Z,8.40
2022-11-14T21:27:26.399Z,8.30
2022-11-14T21:30:14.427Z,8.00
2022-11-14T21:33:00.736Z,7.90
2022-11-14T21:35:47.122Z,7.90
2022-11-14T21:38:33.521Z,7.90
2022-11-14T21:41:24.542Z,8.00
2022-11-14T21:44:17.847Z,8.10
2022-11-14T21:47:03.765Z,8.20
2022-11-14T21:49:50.777Z,8.20
2022-11-14T21:52:37.707Z,8.20
2022-11-14T21:55:23.774Z,8.20
2022-11-14T21:58:09.944Z,8.30
2022-11-14T22:00:56.325Z,8.30
2022-11-14T22:04:01.628Z,8.30
2022-11-14T22:06:47.402Z,8.30
2022-11-14T22:09:36.969Z,8.40
2022-11-14T22:12:24.727Z,8.40
2022-11-14T22:15:11.098Z,8.50
2022-11-14T22:17:58.226Z,8.60
2022-11-14T22:20:44.710Z,8.70
2022-11-14T22:23:31.058Z,8.80
2022-11-14T22:26:17.020Z,8.70
2022-11-14T22:29:03.045Z,8.70
2022-11-14T22:31:53.002Z,8.80
2022-11-14T22:34:38.939Z,8.80
2022-11-14T22:37:25.315Z,8.70
2022-11-14T22:40:14.156Z,8.70
2022-11-14T22:43:03.455Z,8.80
2022-11-14T22:45:53.997Z,8.80
2022-11-14T22:48:49.115Z,8.70
2022-11-14T22:51:35.852Z,8.70
2022-11-14T22:54:22.153Z,8.70
2022-11-14T22:57:08.371Z,8.80
2022-11-14T22:59:55.087Z,8.90
2022-11-14T23:02:41.237Z,8.90
2022-11-14T23:05:27.967Z,8.90
2022-11-14T23:08:20.807Z,8.90
2022-11-14T23:11:16.229Z,9.00
2022-11-14T23:14:02.819Z,9.00
2022-11-14T23:16:52.324Z,9.00
2022-11-14T23:19:38.538Z,8.90
2022-11-14T23:22:24.917Z,8.90
2022-11-14T23:25:11.317Z,8.90
2022-11-14T23:27:58.918Z,8.90
2022-11-14T23:30:45.359Z,8.90
2022-11-14T23:33:35.699Z,8.80
2022-11-14T23:36:22.627Z,8.90
2022-11-14T23:39:08.909Z,9.00
2022-11-14T23:41:54.909Z,9.00
2022-11-14T23:44:40.930Z,9.10
2022-11-14T23:47:27.085Z,9.10
2022-11-14T23:50:13.330Z,9.10
2022-11-14T23:52:59.312Z,9.10
2022-11-14T23:55:59.583Z,9.10
2022-11-14T23:58:45.914Z,9.10
